sensor_id;sensor_type;location;lat;lon;timestamp;temperature;humidity
1534;DHT22;760;48.822;9.304;2023-09-30T04:04:40;15.20;99.90
1534;DHT22;760;48.822;9.304;2023-09-30T04:07:06;15.20;99.90
1534;DHT22;760;48.822;9.304;2023-09-30T04:09:32;15.20;99.90
1534;DHT22;760;48.822;9.304;2023-09-30T04:11:58;15.20;99.90
1534;DHT22;760;48.822;9.304;2023-09-30T04:14:24;15.20;99.90
1534;DHT22;760;48.822;9.304;2023-09-30T04:16:50;15.20;99.90
1534;DHT22;760;48.822;9.304;2023-09-30T04:19:16;15.20;99.90
1534;DHT22;760;48.822;9.304;2023-09-30T04:21:42;15.20;99.90
1534;DHT22;760;48.822;9.304;2023-09-30T04:24:08;15.20;99.90
1534;DHT22;760;48.822;9.304;2023-09-30T04:26:34;15.20;99.90
1534;DHT22;760;48.822;9.304;2023-09-30T04:29:00;15.20;99.90
1534;DHT22;760;48.822;9.304;2023-09-30T04:31:28;15.20;99.90
1534;DHT22;760;48.822;9.304;2023-09-30T04:33:54;15.10;99.90
1534;DHT22;760;48.822;9.304;2023-09-30T04:36:20;15.20;99.90
1534;DHT22;760;48.822;9.304;2023-09-30T04:38:46;15.20;99.90
1534;DHT22;760;48.822;9.304;2023-09-30T04:41:12;15.10;99.90
1534;DHT22;760;48.822;9.304;2023-09-30T04:43:38;15.20;99.90
1534;DHT22;760;48.822;9.304;2023-09-30T04:46:05;15.20;99.90
1534;DHT22;760;48.822;9.304;2023-09-30T04:48:33;15.10;99.90
1534;DHT22;760;48.822;9.304;2023-09-30T04:50:59;15.20;99.90
1534;DHT22;760;48.822;9.304;2023-09-30T04:53:24;15.20;99.90
1534;DHT22;760;48.822;9.304;2023-09-30T04:55:50;15.20;99.90
1534;DHT22;760;48.822;9.304;2023-09-30T04:58:16;15.20;99.90
1534;DHT22;760;48.822;9.304;2023-09-30T05:00:42;15.20;99.90
1534;DHT22;760;48.822;9.304;2023-09-30T05:03:08;15.20;99.90
1534;DHT22;760;48.822;9.304;2023-09-30T05:05:34;15.20;99.90
1534;DHT22;760;48.822;9.304;2023-09-30T05:08:00;15.20;99.90
1534;DHT22;760;48.822;9.304;2023-09-30T05:10:27;15.20;99.90
1534;DHT22;760;48.822;9.304;2023-09-30T05:12:52;15.20;99.90
1534;DHT22;760;48.822;9.304;2023-09-30T05:15:20;15.20;99.90
1534;DHT22;760;48.822;9.304;2023-09-30T05:17:47;15.20;99.90
1534;DHT22;760;48.822;9.304;2023-09-30T05:20:14;15.20;99.90
1534;DHT22;760;48.822;9.304;2023-09-30T05:22:43;15.20;99.90
1534;DHT22;760;48.822;9.304;2023-09-30T05:25:11;15.10;99.90
1534;DHT22;760;48.822;9.304;2023-09-30T05:27:37;15.20;99.90
1534;DHT22;760;48.822;9.304;2023-09-30T05:30:04;15.20;99.90
1534;DHT22;760;48.822;9.304;2023-09-30T05:32:32;15.20;99.90
1534;DHT22;760;48.822;9.304;2023-09-30T05:34:57;15.30;99.90
1534;DHT22;760;48.822;9.304;2023-09-30T05:37:24;15.30;99.90
1534;DHT22;760;48.822;9.304;2023-09-30T05:39:50;15.30;99.90
1534;DHT22;760;48.822;9.304;2023-09-30T05:42:16;15.30;99.90
1534;DHT22;760;48.822;9.304;2023-09-30T05:44:42;15.40;99.90
1534;DHT22;760;48.822;9.304;2023-09-30T05:47:08;15.40;99.90
1534;DHT22;760;48.822;9.304;2023-09-30T05:49:34;15.50;99.90
1534;DHT22;760;48.822;9.304;2023-09-30T05:51:59;15.50;99.90
1534;DHT22;760;48.822;9.304;2023-09-30T05:54:25;15.50;99.90
1534;DHT22;760;48.822;9.304;2023-09-30T05:56:51;15.60;99.90
1534;DHT22;760;48.822;9.304;2023-09-30T05:59:16;15.60;99.90
1534;DHT22;760;48.822;9.304;2023-09-30T06:01:42;15.60;99.90
1534;DHT22;760;48.822;9.304;2023-09-30T06:04:08;15.70;99.90
1534;DHT22;760;48.822;9.304;2023-09-30T06:06:33;15.70;99.90
1534;DHT22;760;48.822;9.304;2023-09-30T06:08:59;15.70;99.90
1534;DHT22;760;48.822;9.304;2023-09-30T06:11:25;15.80;99.90
1534;DHT22;760;48.822;9.304;2023-09-30T06:13:57;15.90;99.90
1534;DHT22;760;48.822;9.304;2023-09-30T06:16:24;15.90;99.90
1534;DHT22;760;48.822;9.304;2023-09-30T06:18:52;16.00;99.90
1534;DHT22;760;48.822;9.304;2023-09-30T06:21:17;16.00;99.90
1534;DHT22;760;48.822;9.304;2023-09-30T06:23:46;16.10;99.90
1534;DHT22;760;48.822;9.304;2023-09-30T06:26:13;16.20;99.90
1534;DHT22;760;48.822;9.304;2023-09-30T06:28:39;16.20;99.90
1534;DHT22;760;48.822;9.304;2023-09-30T06:31:08;16.30;99.90
1534;DHT22;760;48.822;9.304;2023-09-30T06:33:37;16.40;99.90
1534;DHT22;760;48.822;9.304;2023-09-30T06:36:13;16.40;99.90
1534;DHT22;760;48.822;9.304;2023-09-30T06:38:40;16.50;99.90
1534;DHT22;760;48.822;9.304;2023-09-30T06:41:07;16.60;99.90
1534;DHT22;760;48.822;9.304;2023-09-30T06:43:33;16.60;99.90
1534;DHT22;760;48.822;9.304;2023-09-30T06:46:06;16.70;99.90
1534;DHT22;760;48.822;9.304;2023-09-30T06:48:33;16.60;99.90
1534;DHT22;760;48.822;9.304;2023-09-30T06:50:58;16.60;99.90
1534;DHT22;760;48.822;9.304;2023-09-30T06:53:25;16.70;99.90
1534;DHT22;760;48.822;9.304;2023-09-30T06:55:51;16.90;99.90
1534;DHT22;760;48.822;9.304;2023-09-30T06:58:19;17.00;99.90
1534;DHT22;760;48.822;9.304;2023-09-30T07:00:51;17.30;99.90
1534;DHT22;760;48.822;9.304;2023-09-30T07:03:17;17.50;99.90
1534;DHT22;760;48.822;9.304;2023-09-30T07:05:45;17.50;99.90
1534;DHT22;760;48.822;9.304;2023-09-30T07:08:11;17.50;99.90
1534;DHT22;760;48.822;9.304;2023-09-30T07:10:37;17.50;99.90
1534;DHT22;760;48.822;9.304;2023-09-30T07:13:04;17.50;99.90
1534;DHT22;760;48.822;9.304;2023-09-30T07:15:32;17.50;99.90
1534;DHT22;760;48.822;9.304;2023-09-30T07:17:57;17.60;99.90
1534;DHT22;760;48.822;9.304;2023-09-30T07:20:23;17.60;99.90
1534;DHT22;760;48.822;9.304;2023-09-30T07:22:49;17.70;99.90
1534;DHT22;760;48.822;9.304;2023-09-30T07:25:15;17.80;99.90
1534;DHT22;760;48.822;9.304;2023-09-30T07:27:44;17.80;99.90
1534;DHT22;760;48.822;9.304;2023-09-30T07:30:11;17.90;99.90
1534;DHT22;760;48.822;9.304;2023-09-30T07:32:37;17.90;99.90
1534;DHT22;760;48.822;9.304;2023-09-30T07:35:03;18.00;99.90
1534;DHT22;760;48.822;9.304;2023-09-30T07:37:29;18.10;99.90
1534;DHT22;760;48.822;9.304;2023-09-30T07:39:55;18.30;99.90
1534;DHT22;760;48.822;9.304;2023-09-30T07:42:21;18.50;99.90
1534;DHT22;760;48.822;9.304;2023-09-30T07:44:47;18.50;99.90
1534;DHT22;760;48.822;9.304;2023-09-30T07:47:14;18.60;99.90
1534;DHT22;760;48.822;9.304;2023-09-30T07:49:40;18.70;99.90
1534;DHT22;760;48.822;9.304;2023-09-30T07:52:05;18.70;99.90
1534;DHT22;760;48.822;9.304;2023-09-30T07:54:31;18.80;99.90
1534;DHT22;760;48.822;9.304;2023-09-30T07:56:57;18.90;99.90
1534;DHT22;760;48.822;9.304;2023-09-30T07:59:24;19.00;99.90
1534;DHT22;760;48.822;9.304;2023-09-30T08:01:50;19.30;99.90
1534;DHT22;760;48.822;9.304;2023-09-30T08:04:17;19.50;99.90
1534;DHT22;760;48.822;9.304;2023-09-30T08:06:43;19.70;99.90
1534;DHT22;760;48.822;9.304;2023-09-30T08:09:08;19.80;99.90
1534;DHT22;760;48.822;9.304;2023-09-30T08:11:37;20.10;99.90
1534;DHT22;760;48.822;9.304;2023-09-30T08:14:03;20.60;99.90
1534;DHT22;760;48.822;9.304;2023-09-30T08:16:33;21.10;99.90
1534;DHT22;760;48.822;9.304;2023-09-30T08:18:58;21.60;99.90
1534;DHT22;760;48.822;9.304;2023-09-30T08:21:24;22.00;99.90
1534;DHT22;760;48.822;9.304;2023-09-30T08:23:49;22.30;99.90
1534;DHT22;760;48.822;9.304;2023-09-30T08:26:15;22.80;99.90
1534;DHT22;760;48.822;9.304;2023-09-30T08:28:41;23.30;99.90
1534;DHT22;760;48.822;9.304;2023-09-30T08:31:06;23.70;99.90
1534;DHT22;760;48.822;9.304;2023-09-30T08:33:32;24.20;99.90
1534;DHT22;760;48.822;9.304;2023-09-30T08:36:04;24.40;99.70
1534;DHT22;760;48.822;9.304;2023-09-30T08:38:38;24.80;99.40
1534;DHT22;760;48.822;9.304;2023-09-30T08:41:04;25.10;97.40
1534;DHT22;760;48.822;9.304;2023-09-30T08:43:30;24.80;97.30
1534;DHT22;760;48.822;9.304;2023-09-30T08:45:58;24.00;98.30
1534;DHT22;760;48.822;9.304;2023-09-30T08:48:26;23.80;99.50
1534;DHT22;760;48.822;9.304;2023-09-30T08:50:53;24.20;98.70
1534;DHT22;760;48.822;9.304;2023-09-30T08:53:20;24.40;98.40
1534;DHT22;760;48.822;9.304;2023-09-30T08:55:46;24.60;98.50
1534;DHT22;760;48.822;9.304;2023-09-30T08:58:12;24.80;97.40
1534;DHT22;760;48.822;9.304;2023-09-30T09:00:39;24.70;97.60
1534;DHT22;760;48.822;9.304;2023-09-30T09:03:08;24.60;97.80
1534;DHT22;760;48.822;9.304;2023-09-30T09:05:34;24.50;97.60
1534;DHT22;760;48.822;9.304;2023-09-30T09:07:59;24.70;97.60
1534;DHT22;760;48.822;9.304;2023-09-30T09:10:25;24.90;97.10
1534;DHT22;760;48.822;9.304;2023-09-30T09:12:58;25.30;96.60
1534;DHT22;760;48.822;9.304;2023-09-30T09:15:28;25.90;95.90
1534;DHT22;760;48.822;9.304;2023-09-30T09:17:54;26.40;94.90
1534;DHT22;760;48.822;9.304;2023-09-30T09:20:25;26.90;94.00
1534;DHT22;760;48.822;9.304;2023-09-30T09:22:55;27.40;93.80
1534;DHT22;760;48.822;9.304;2023-09-30T09:25:24;28.00;92.20
1534;DHT22;760;48.822;9.304;2023-09-30T09:27:51;28.50;91.80
1534;DHT22;760;48.822;9.304;2023-09-30T09:30:24;28.70;90.40
1534;DHT22;760;48.822;9.304;2023-09-30T09:33:14;28.00;91.30
1534;DHT22;760;48.822;9.304;2023-09-30T09:35:39;27.50;91.60
1534;DHT22;760;48.822;9.304;2023-09-30T09:38:06;26.90;92.40
1534;DHT22;760;48.822;9.304;2023-09-30T09:40:36;26.60;92.90
1534;DHT22;760;48.822;9.304;2023-09-30T09:43:03;25.90;92.80
1534;DHT22;760;48.822;9.304;2023-09-30T09:45:35;25.50;93.60
1534;DHT22;760;48.822;9.304;2023-09-30T09:48:01;25.20;94.00
1534;DHT22;760;48.822;9.304;2023-09-30T09:50:30;25.00;94.30
1534;DHT22;760;48.822;9.304;2023-09-30T09:52:58;24.90;94.80
1534;DHT22;760;48.822;9.304;2023-09-30T09:55:26;25.30;95.00
1534;DHT22;760;48.822;9.304;2023-09-30T09:57:52;25.70;93.80
1534;DHT22;760;48.822;9.304;2023-09-30T10:00:26;26.10;93.30
1534;DHT22;760;48.822;9.304;2023-09-30T10:02:52;26.00;93.40
1534;DHT22;760;48.822;9.304;2023-09-30T10:05:19;26.40;93.30
1534;DHT22;760;48.822;9.304;2023-09-30T10:10:20;27.10;91.30
1534;DHT22;760;48.822;9.304;2023-09-30T10:12:46;27.00;90.80
1534;DHT22;760;48.822;9.304;2023-09-30T10:18:00;26.50;90.60
1534;DHT22;760;48.822;9.304;2023-09-30T10:20:32;25.70;90.60
1534;DHT22;760;48.822;9.304;2023-09-30T10:23:19;25.20;91.00
1534;DHT22;760;48.822;9.304;2023-09-30T10:26:13;24.80;92.70
1534;DHT22;760;48.822;9.304;2023-09-30T10:28:43;25.20;92.70
1534;DHT22;760;48.822;9.304;2023-09-30T10:31:22;25.60;91.70
1534;DHT22;760;48.822;9.304;2023-09-30T10:36:38;26.30;90.70
1534;DHT22;760;48.822;9.304;2023-09-30T10:39:06;26.70;90.00
1534;DHT22;760;48.822;9.304;2023-09-30T10:46:57;27.00;90.10
1534;DHT22;760;48.822;9.304;2023-09-30T10:51:59;27.20;87.70
1534;DHT22;760;48.822;9.304;2023-09-30T10:54:32;27.20;88.00
1534;DHT22;760;48.822;9.304;2023-09-30T10:56:59;27.20;88.70
1534;DHT22;760;48.822;9.304;2023-09-30T10:59:29;27.20;87.10
1534;DHT22;760;48.822;9.304;2023-09-30T11:02:00;27.10;88.60
1534;DHT22;760;48.822;9.304;2023-09-30T11:04:26;27.00;88.40
1534;DHT22;760;48.822;9.304;2023-09-30T11:06:53;26.70;88.40
1534;DHT22;760;48.822;9.304;2023-09-30T11:09:20;26.50;88.30
1534;DHT22;760;48.822;9.304;2023-09-30T11:11:51;26.00;88.80
1534;DHT22;760;48.822;9.304;2023-09-30T11:14:21;25.60;88.50
1534;DHT22;760;48.822;9.304;2023-09-30T11:16:47;25.00;90.30
1534;DHT22;760;48.822;9.304;2023-09-30T11:19:14;24.60;90.70
1534;DHT22;760;48.822;9.304;2023-09-30T11:21:41;24.20;90.90
1534;DHT22;760;48.822;9.304;2023-09-30T11:24:07;24.00;91.20
1534;DHT22;760;48.822;9.304;2023-09-30T11:26:34;24.00;91.90
1534;DHT22;760;48.822;9.304;2023-09-30T11:31:47;23.60;92.30
1534;DHT22;760;48.822;9.304;2023-09-30T11:34:15;23.50;92.30
1534;DHT22;760;48.822;9.304;2023-09-30T11:36:50;23.40;92.70
1534;DHT22;760;48.822;9.304;2023-09-30T11:39:23;23.40;92.30
1534;DHT22;760;48.822;9.304;2023-09-30T11:41:50;23.30;93.00
1534;DHT22;760;48.822;9.304;2023-09-30T11:44:15;23.20;92.60
1534;DHT22;760;48.822;9.304;2023-09-30T11:46:53;23.10;93.40
1534;DHT22;760;48.822;9.304;2023-09-30T11:49:29;22.90;92.80
1534;DHT22;760;48.822;9.304;2023-09-30T11:51:56;22.80;92.90
1534;DHT22;760;48.822;9.304;2023-09-30T11:54:28;22.80;92.90
1534;DHT22;760;48.822;9.304;2023-09-30T11:56:54;22.60;93.90
1534;DHT22;760;48.822;9.304;2023-09-30T11:59:20;22.50;93.20
1534;DHT22;760;48.822;9.304;2023-09-30T12:01:48;22.30;93.10
1534;DHT22;760;48.822;9.304;2023-09-30T12:04:17;22.20;93.00
1534;DHT22;760;48.822;9.304;2023-09-30T12:06:45;22.20;93.00
1534;DHT22;760;48.822;9.304;2023-09-30T12:09:12;22.10;93.00
1534;DHT22;760;48.822;9.304;2023-09-30T12:11:40;22.10;93.00
1534;DHT22;760;48.822;9.304;2023-09-30T12:14:12;22.10;93.10
1534;DHT22;760;48.822;9.304;2023-09-30T12:16:38;22.00;93.70
1534;DHT22;760;48.822;9.304;2023-09-30T12:19:04;22.00;93.70
1534;DHT22;760;48.822;9.304;2023-09-30T12:21:33;22.10;93.80
1534;DHT22;760;48.822;9.304;2023-09-30T12:24:00;22.10;93.80
1534;DHT22;760;48.822;9.304;2023-09-30T12:26:25;22.20;93.70
1534;DHT22;760;48.822;9.304;2023-09-30T12:28:51;22.10;93.50
1534;DHT22;760;48.822;9.304;2023-09-30T12:31:17;22.10;93.20
1534;DHT22;760;48.822;9.304;2023-09-30T12:33:43;22.00;94.20
1534;DHT22;760;48.822;9.304;2023-09-30T12:36:09;22.00;94.30
1534;DHT22;760;48.822;9.304;2023-09-30T12:38:35;22.00;93.70
1534;DHT22;760;48.822;9.304;2023-09-30T12:41:00;22.00;93.40
1534;DHT22;760;48.822;9.304;2023-09-30T12:43:26;21.90;93.30
1534;DHT22;760;48.822;9.304;2023-09-30T12:45:52;21.80;93.50
1534;DHT22;760;48.822;9.304;2023-09-30T12:48:17;21.70;93.90
1534;DHT22;760;48.822;9.304;2023-09-30T12:50:44;21.60;93.90
1534;DHT22;760;48.822;9.304;2023-09-30T12:53:10;21.60;93.90
1534;DHT22;760;48.822;9.304;2023-09-30T12:55:35;21.60;93.60
1534;DHT22;760;48.822;9.304;2023-09-30T12:58:01;21.50;93.80
1534;DHT22;760;48.822;9.304;2023-09-30T13:00:27;21.50;93.90
1534;DHT22;760;48.822;9.304;2023-09-30T13:02:56;21.60;93.40
1534;DHT22;760;48.822;9.304;2023-09-30T13:05:22;21.70;93.70
1534;DHT22;760;48.822;9.304;2023-09-30T13:07:48;21.80;93.90
1534;DHT22;760;48.822;9.304;2023-09-30T13:10:14;21.80;93.60
1534;DHT22;760;48.822;9.304;2023-09-30T13:12:39;21.70;93.50
1534;DHT22;760;48.822;9.304;2023-09-30T13:15:05;21.80;93.90
1534;DHT22;760;48.822;9.304;2023-09-30T13:17:31;21.50;93.40
1534;DHT22;760;48.822;9.304;2023-09-30T13:19:57;21.40;93.80
1534;DHT22;760;48.822;9.304;2023-09-30T13:22:23;21.40;94.30
1534;DHT22;760;48.822;9.304;2023-09-30T13:24:48;21.40;94.40
1534;DHT22;760;48.822;9.304;2023-09-30T13:27:14;21.30;94.10
1534;DHT22;760;48.822;9.304;2023-09-30T13:29:41;21.40;94.30
1534;DHT22;760;48.822;9.304;2023-09-30T13:32:08;21.40;94.10
1534;DHT22;760;48.822;9.304;2023-09-30T13:34:34;21.50;94.40
1534;DHT22;760;48.822;9.304;2023-09-30T13:36:59;21.60;94.50
1534;DHT22;760;48.822;9.304;2023-09-30T13:39:25;21.60;94.30
1534;DHT22;760;48.822;9.304;2023-09-30T13:41:50;21.60;94.30
1534;DHT22;760;48.822;9.304;2023-09-30T13:44:17;21.60;94.40
1534;DHT22;760;48.822;9.304;2023-09-30T13:46:43;21.60;94.60
1534;DHT22;760;48.822;9.304;2023-09-30T13:49:09;21.60;94.70
1534;DHT22;760;48.822;9.304;2023-09-30T13:51:35;21.60;94.70
1534;DHT22;760;48.822;9.304;2023-09-30T13:54:00;21.60;94.50
1534;DHT22;760;48.822;9.304;2023-09-30T13:56:26;21.60;94.90
1534;DHT22;760;48.822;9.304;2023-09-30T13:58:53;21.60;94.40
1534;DHT22;760;48.822;9.304;2023-09-30T14:01:18;21.70;94.50
1534;DHT22;760;48.822;9.304;2023-09-30T14:03:45;21.70;94.10
1534;DHT22;760;48.822;9.304;2023-09-30T14:06:15;21.70;93.50
1534;DHT22;760;48.822;9.304;2023-09-30T14:08:41;21.60;93.90
1534;DHT22;760;48.822;9.304;2023-09-30T14:11:08;21.60;93.90
1534;DHT22;760;48.822;9.304;2023-09-30T14:13:34;21.50;93.70
1534;DHT22;760;48.822;9.304;2023-09-30T14:16:01;21.40;93.90
1534;DHT22;760;48.822;9.304;2023-09-30T14:18:26;21.40;94.30
1534;DHT22;760;48.822;9.304;2023-09-30T14:20:52;21.30;94.40
1534;DHT22;760;48.822;9.304;2023-09-30T14:23:18;21.20;94.40
1534;DHT22;760;48.822;9.304;2023-09-30T14:25:44;21.10;94.80
1534;DHT22;760;48.822;9.304;2023-09-30T14:28:09;21.00;95.10
1534;DHT22;760;48.822;9.304;2023-09-30T14:30:35;20.90;95.20
1534;DHT22;760;48.822;9.304;2023-09-30T14:33:01;20.90;95.40
1534;DHT22;760;48.822;9.304;2023-09-30T14:35:28;20.90;95.20
1534;DHT22;760;48.822;9.304;2023-09-30T14:37:54;21.00;95.30
1534;DHT22;760;48.822;9.304;2023-09-30T14:40:20;20.90;95.20
1534;DHT22;760;48.822;9.304;2023-09-30T14:42:46;20.90;95.10
1534;DHT22;760;48.822;9.304;2023-09-30T14:45:11;20.90;95.20
1534;DHT22;760;48.822;9.304;2023-09-30T14:47:37;20.80;95.10
1534;DHT22;760;48.822;9.304;2023-09-30T14:50:05;20.80;94.90
1534;DHT22;760;48.822;9.304;2023-09-30T14:52:31;20.80;95.00
1534;DHT22;760;48.822;9.304;2023-09-30T14:54:57;20.80;95.00
1534;DHT22;760;48.822;9.304;2023-09-30T14:57:23;20.80;95.10
1534;DHT22;760;48.822;9.304;2023-09-30T14:59:50;20.80;94.90
1534;DHT22;760;48.822;9.304;2023-09-30T15:02:15;20.70;95.10
1534;DHT22;760;48.822;9.304;2023-09-30T15:04:41;20.70;94.60
1534;DHT22;760;48.822;9.304;2023-09-30T15:07:07;20.70;95.00
1534;DHT22;760;48.822;9.304;2023-09-30T15:09:32;20.60;95.30
1534;DHT22;760;48.822;9.304;2023-09-30T15:11:58;20.70;95.30
1534;DHT22;760;48.822;9.304;2023-09-30T15:14:24;20.70;95.50
1534;DHT22;760;48.822;9.304;2023-09-30T15:16:50;20.70;95.30
1534;DHT22;760;48.822;9.304;2023-09-30T15:19:15;20.80;95.10
1534;DHT22;760;48.822;9.304;2023-09-30T15:21:41;20.70;95.00
1534;DHT22;760;48.822;9.304;2023-09-30T15:24:07;20.70;95.10
1534;DHT22;760;48.822;9.304;2023-09-30T15:26:34;20.70;94.80
1534;DHT22;760;48.822;9.304;2023-09-30T15:29:00;20.70;94.90
1534;DHT22;760;48.822;9.304;2023-09-30T15:31:29;20.70;94.60
1534;DHT22;760;48.822;9.304;2023-09-30T15:33:55;20.60;94.70
1534;DHT22;760;48.822;9.304;2023-09-30T15:36:21;20.60;95.10
1534;DHT22;760;48.822;9.304;2023-09-30T15:38:47;20.50;95.00
1534;DHT22;760;48.822;9.304;2023-09-30T15:41:14;20.50;94.90
1534;DHT22;760;48.822;9.304;2023-09-30T15:43:40;20.50;95.00
1534;DHT22;760;48.822;9.304;2023-09-30T15:46:07;20.50;95.00
1534;DHT22;760;48.822;9.304;2023-09-30T15:48:33;20.50;95.10
1534;DHT22;760;48.822;9.304;2023-09-30T15:50:59;20.60;95.10
1534;DHT22;760;48.822;9.304;2023-09-30T15:53:25;20.50;95.00
1534;DHT22;760;48.822;9.304;2023-09-30T15:55:50;20.40;94.80
1534;DHT22;760;48.822;9.304;2023-09-30T15:58:16;20.40;95.20
1534;DHT22;760;48.822;9.304;2023-09-30T16:00:42;20.30;95.60
1534;DHT22;760;48.822;9.304;2023-09-30T16:03:08;20.20;95.30
1534;DHT22;760;48.822;9.304;2023-09-30T16:05:36;20.10;95.30
1534;DHT22;760;48.822;9.304;2023-09-30T16:08:03;20.10;95.60
1534;DHT22;760;48.822;9.304;2023-09-30T16:10:29;20.00;95.90
1534;DHT22;760;48.822;9.304;2023-09-30T16:12:55;20.00;95.80
1534;DHT22;760;48.822;9.304;2023-09-30T16:15:21;20.00;95.80
1534;DHT22;760;48.822;9.304;2023-09-30T16:17:47;19.90;95.80
1534;DHT22;760;48.822;9.304;2023-09-30T16:20:13;19.90;95.60
1534;DHT22;760;48.822;9.304;2023-09-30T16:22:38;19.90;95.80
1534;DHT22;760;48.822;9.304;2023-09-30T16:25:05;19.80;95.80
1534;DHT22;760;48.822;9.304;2023-09-30T16:27:31;19.70;95.90
1534;DHT22;760;48.822;9.304;2023-09-30T16:29:57;19.70;96.10
1534;DHT22;760;48.822;9.304;2023-09-30T16:32:22;19.60;96.20
1534;DHT22;760;48.822;9.304;2023-09-30T16:34:49;19.50;96.40
1534;DHT22;760;48.822;9.304;2023-09-30T16:37:14;19.50;96.90
1534;DHT22;760;48.822;9.304;2023-09-30T16:39:40;19.40;97.00
1534;DHT22;760;48.822;9.304;2023-09-30T16:42:07;19.30;97.20
1534;DHT22;760;48.822;9.304;2023-09-30T16:44:32;19.20;97.40
1534;DHT22;760;48.822;9.304;2023-09-30T16:46:58;19.20;97.30
1534;DHT22;760;48.822;9.304;2023-09-30T16:49:24;19.10;97.50
1534;DHT22;760;48.822;9.304;2023-09-30T16:51:49;19.00;97.70
1534;DHT22;760;48.822;9.304;2023-09-30T16:54:15;19.00;97.70
1534;DHT22;760;48.822;9.304;2023-09-30T16:56:41;18.90;97.70
1534;DHT22;760;48.822;9.304;2023-09-30T16:59:07;18.90;97.80
1534;DHT22;760;48.822;9.304;2023-09-30T17:01:33;18.80;98.00
1534;DHT22;760;48.822;9.304;2023-09-30T17:03:58;18.70;98.20
1534;DHT22;760;48.822;9.304;2023-09-30T17:06:24;18.60;98.30
1534;DHT22;760;48.822;9.304;2023-09-30T17:08:50;18.60;98.50
1534;DHT22;760;48.822;9.304;2023-09-30T17:11:20;18.60;98.60
1534;DHT22;760;48.822;9.304;2023-09-30T17:13:46;18.50;98.70
1534;DHT22;760;48.822;9.304;2023-09-30T17:16:19;18.40;98.90
1534;DHT22;760;48.822;9.304;2023-09-30T17:18:46;18.40;99.00
1534;DHT22;760;48.822;9.304;2023-09-30T17:21:12;18.30;99.00
1534;DHT22;760;48.822;9.304;2023-09-30T17:23:39;18.30;99.20
1534;DHT22;760;48.822;9.304;2023-09-30T17:26:06;18.20;99.20
1534;DHT22;760;48.822;9.304;2023-09-30T17:28:31;18.20;99.50
1534;DHT22;760;48.822;9.304;2023-09-30T17:31:02;18.10;99.60
1534;DHT22;760;48.822;9.304;2023-09-30T17:33:29;18.00;99.80
1534;DHT22;760;48.822;9.304;2023-09-30T17:36:02;18.00;99.90
1534;DHT22;760;48.822;9.304;2023-09-30T17:38:29;17.90;99.90
1534;DHT22;760;48.822;9.304;2023-09-30T17:41:05;17.90;99.90
1534;DHT22;760;48.822;9.304;2023-09-30T17:43:35;17.80;99.90
1534;DHT22;760;48.822;9.304;2023-09-30T17:46:11;17.80;99.90
1534;DHT22;760;48.822;9.304;2023-09-30T17:48:38;17.70;99.90
1534;DHT22;760;48.822;9.304;2023-09-30T17:51:04;17.70;99.90
1534;DHT22;760;48.822;9.304;2023-09-30T17:53:29;17.60;99.90
1534;DHT22;760;48.822;9.304;2023-09-30T17:55:56;17.60;99.90
1534;DHT22;760;48.822;9.304;2023-09-30T17:58:21;17.50;99.90
1534;DHT22;760;48.822;9.304;2023-09-30T18:00:48;17.50;99.90
1534;DHT22;760;48.822;9.304;2023-09-30T18:03:14;17.50;99.90
1534;DHT22;760;48.822;9.304;2023-09-30T18:05:40;17.40;99.90
1534;DHT22;760;48.822;9.304;2023-09-30T18:08:06;17.40;99.90
1534;DHT22;760;48.822;9.304;2023-09-30T18:10:32;17.40;99.90
1534;DHT22;760;48.822;9.304;2023-09-30T18:12:57;17.30;99.90
1534;DHT22;760;48.822;9.304;2023-09-30T18:15:27;17.30;99.90
1534;DHT22;760;48.822;9.304;2023-09-30T18:17:53;17.30;99.90
1534;DHT22;760;48.822;9.304;2023-09-30T18:20:18;17.20;99.90
1534;DHT22;760;48.822;9.304;2023-09-30T18:22:44;17.20;99.90
1534;DHT22;760;48.822;9.304;2023-09-30T18:25:10;17.10;99.90
1534;DHT22;760;48.822;9.304;2023-09-30T18:27:36;17.10;99.90
1534;DHT22;760;48.822;9.304;2023-09-30T18:30:05;17.00;99.90
1534;DHT22;760;48.822;9.304;2023-09-30T18:32:32;17.00;99.90
1534;DHT22;760;48.822;9.304;2023-09-30T18:34:57;17.00;99.90
1534;DHT22;760;48.822;9.304;2023-09-30T18:37:23;16.90;99.90
1534;DHT22;760;48.822;9.304;2023-09-30T18:39:49;16.80;99.90
1534;DHT22;760;48.822;9.304;2023-09-30T18:42:18;16.80;99.90
1534;DHT22;760;48.822;9.304;2023-09-30T18:44:44;16.70;99.90
1534;DHT22;760;48.822;9.304;2023-09-30T18:47:09;16.60;99.90
1534;DHT22;760;48.822;9.304;2023-09-30T18:49:35;16.60;99.90
1534;DHT22;760;48.822;9.304;2023-09-30T18:52:00;16.50;99.90
1534;DHT22;760;48.822;9.304;2023-09-30T18:54:27;16.50;99.90
1534;DHT22;760;48.822;9.304;2023-09-30T18:56:53;16.40;99.90
1534;DHT22;760;48.822;9.304;2023-09-30T18:59:19;16.30;99.90
1534;DHT22;760;48.822;9.304;2023-09-30T19:01:47;16.20;99.90
1534;DHT22;760;48.822;9.304;2023-09-30T19:04:16;16.10;99.90
1534;DHT22;760;48.822;9.304;2023-09-30T19:06:42;16.00;99.90
1534;DHT22;760;48.822;9.304;2023-09-30T19:09:08;15.90;99.90
1534;DHT22;760;48.822;9.304;2023-09-30T19:11:35;15.90;99.90
1534;DHT22;760;48.822;9.304;2023-09-30T19:14:00;15.90;99.90
1534;DHT22;760;48.822;9.304;2023-09-30T19:16:27;15.80;99.90
1534;DHT22;760;48.822;9.304;2023-09-30T19:18:52;15.70;99.90
1534;DHT22;760;48.822;9.304;2023-09-30T19:21:20;15.60;99.90
1534;DHT22;760;48.822;9.304;2023-09-30T19:23:46;15.50;99.90
1534;DHT22;760;48.822;9.304;2023-09-30T19:26:15;15.50;99.90
1534;DHT22;760;48.822;9.304;2023-09-30T19:28:41;15.40;99.90
1534;DHT22;760;48.822;9.304;2023-09-30T19:31:13;15.40;99.90
1534;DHT22;760;48.822;9.304;2023-09-30T19:33:39;15.30;99.90
1534;DHT22;760;48.822;9.304;2023-09-30T19:36:11;15.30;99.90
1534;DHT22;760;48.822;9.304;2023-09-30T19:38:38;15.30;99.90
1534;DHT22;760;48.822;9.304;2023-09-30T19:41:04;15.20;99.90
1534;DHT22;760;48.822;9.304;2023-09-30T19:43:31;15.10;99.90
1534;DHT22;760;48.822;9.304;2023-09-30T19:46:03;15.00;99.90
1534;DHT22;760;48.822;9.304;2023-09-30T19:48:30;15.00;99.90
1534;DHT22;760;48.822;9.304;2023-09-30T19:50:55;14.90;99.90
1534;DHT22;760;48.822;9.304;2023-09-30T19:53:21;14.80;99.90
1534;DHT22;760;48.822;9.304;2023-09-30T19:55:47;14.80;99.90
1534;DHT22;760;48.822;9.304;2023-09-30T19:58:14;14.70;99.90
1534;DHT22;760;48.822;9.304;2023-09-30T20:00:39;14.60;99.90
1534;DHT22;760;48.822;9.304;2023-09-30T20:03:06;14.60;99.90
1534;DHT22;760;48.822;9.304;2023-09-30T20:05:31;14.60;99.90
1534;DHT22;760;48.822;9.304;2023-09-30T20:07:57;14.50;99.90
1534;DHT22;760;48.822;9.304;2023-09-30T20:10:23;14.60;99.90
1534;DHT22;760;48.822;9.304;2023-09-30T20:12:48;14.50;99.90
1534;DHT22;760;48.822;9.304;2023-09-30T20:15:14;14.50;99.90
1534;DHT22;760;48.822;9.304;2023-09-30T20:17:40;14.50;99.90
1534;DHT22;760;48.822;9.304;2023-09-30T20:20:06;14.50;99.90
1534;DHT22;760;48.822;9.304;2023-09-30T20:22:32;14.50;99.90
1534;DHT22;760;48.822;9.304;2023-09-30T20:24:58;14.40;99.90
1534;DHT22;760;48.822;9.304;2023-09-30T20:27:27;14.40;99.90
1534;DHT22;760;48.822;9.304;2023-09-30T20:29:53;14.40;99.90
1534;DHT22;760;48.822;9.304;2023-09-30T20:32:19;14.30;99.90
1534;DHT22;760;48.822;9.304;2023-09-30T20:34:45;14.30;99.90
1534;DHT22;760;48.822;9.304;2023-09-30T20:37:11;14.30;99.90